sensor_id;sensor_type;location;lat;lon;timestamp;pressure;altitude;pressure_sealevel;temperature;humidity
11190;BME280;5651;50.926;4.718;2022-07-18T00:02:23;102259.00;;;15.49;61.80
11190;BME280;5651;50.926;4.718;2022-07-18T00:04:49;102257.25;;;15.47;61.57
11190;BME280;5651;50.926;4.718;2022-07-18T00:07:15;102255.50;;;15.47;63.00
11190;BME280;5651;50.926;4.718;2022-07-18T00:09:42;102252.00;;;15.44;63.13
11190;BME280;5651;50.926;4.718;2022-07-18T00:12:09;102253.75;;;15.42;63.12
11190;BME280;5651;50.926;4.718;2022-07-18T00:14:36;102245.00;;;15.36;64.14
11190;BME280;5651;50.926;4.718;2022-07-18T00:17:03;102252.88;;;15.32;63.69
11190;BME280;5651;50.926;4.718;2022-07-18T00:19:29;102252.91;;;15.27;65.66
11190;BME280;5651;50.926;4.718;2022-07-18T00:21:55;102256.41;;;15.23;66.23
11190;BME280;5651;50.926;4.718;2022-07-18T00:24:21;102253.81;;;15.17;69.17
11190;BME280;5651;50.926;4.718;2022-07-18T00:26:47;102250.31;;;15.13;69.26
11190;BME280;5651;50.926;4.718;2022-07-18T00:29:12;102253.81;;;15.08;69.09
11190;BME280;5651;50.926;4.718;2022-07-18T00:31:38;102244.16;;;15.02;68.40
11190;BME280;5651;50.926;4.718;2022-07-18T00:34:04;102247.69;;;14.99;67.76
11190;BME280;5651;50.926;4.718;2022-07-18T00:36:31;102239.81;;;14.95;66.04
11190;BME280;5651;50.926;4.718;2022-07-18T00:38:57;102236.28;;;14.93;66.10
11190;BME280;5651;50.926;4.718;2022-07-18T00:41:24;102234.56;;;14.92;66.31
11190;BME280;5651;50.926;4.718;2022-07-18T00:43:50;102233.69;;;14.89;65.96
11190;BME280;5651;50.926;4.718;2022-07-18T00:46:24;102235.41;;;14.89;66.13
11190;BME280;5651;50.926;4.718;2022-07-18T00:48:51;102231.06;;;14.85;63.57
11190;BME280;5651;50.926;4.718;2022-07-18T00:51:17;102224.91;;;14.84;61.87
11190;BME280;5651;50.926;4.718;2022-07-18T00:53:44;102224.91;;;14.84;62.27
11190;BME280;5651;50.926;4.718;2022-07-18T00:56:11;102216.19;;;14.85;63.69
11190;BME280;5651;50.926;4.718;2022-07-18T00:58:37;102206.56;;;14.87;64.83
11190;BME280;5651;50.926;4.718;2022-07-18T01:01:03;102208.31;;;14.92;65.79
11190;BME280;5651;50.926;4.718;2022-07-18T01:03:48;102209.19;;;14.89;65.40
11190;BME280;5651;50.926;4.718;2022-07-18T01:06:13;102206.56;;;14.87;65.86
11190;BME280;5651;50.926;4.718;2022-07-18T01:08:42;102206.56;;;14.84;65.53
11190;BME280;5651;50.926;4.718;2022-07-18T01:11:09;102202.19;;;14.80;64.80
11190;BME280;5651;50.926;4.718;2022-07-18T01:13:37;102204.81;;;14.77;64.66
11190;BME280;5651;50.926;4.718;2022-07-18T01:16:02;102206.56;;;14.75;66.03
11190;BME280;5651;50.926;4.718;2022-07-18T01:18:28;102207.44;;;14.71;65.59
11190;BME280;5651;50.926;4.718;2022-07-18T01:20:54;102207.44;;;14.68;66.08
11190;BME280;5651;50.926;4.718;2022-07-18T01:23:20;102198.66;;;14.63;65.88
11190;BME280;5651;50.926;4.718;2022-07-18T01:25:46;102207.41;;;14.60;66.09
11190;BME280;5651;50.926;4.718;2022-07-18T01:28:12;102199.53;;;14.55;67.04
11190;BME280;5651;50.926;4.718;2022-07-18T01:30:38;102204.78;;;14.52;67.74
11190;BME280;5651;50.926;4.718;2022-07-18T01:33:04;102207.38;;;14.49;69.40
11190;BME280;5651;50.926;4.718;2022-07-18T01:35:30;102202.16;;;14.46;68.42
11190;BME280;5651;50.926;4.718;2022-07-18T01:37:58;102194.28;;;14.41;68.63
11190;BME280;5651;50.926;4.718;2022-07-18T01:40:25;102201.28;;;14.38;68.42
11190;BME280;5651;50.926;4.718;2022-07-18T01:42:51;102196.88;;;14.32;68.52
11190;BME280;5651;50.926;4.718;2022-07-18T01:45:18;102196.88;;;14.29;68.30
11190;BME280;5651;50.926;4.718;2022-07-18T01:47:44;102193.38;;;14.25;69.16
11190;BME280;5651;50.926;4.718;2022-07-18T01:50:10;102199.47;;;14.23;69.22
11190;BME280;5651;50.926;4.718;2022-07-18T01:52:37;102189.84;;;14.17;67.54
11190;BME280;5651;50.926;4.718;2022-07-18T01:55:05;102193.34;;;14.15;67.81
11190;BME280;5651;50.926;4.718;2022-07-18T01:57:32;102196.84;;;14.14;67.53
11190;BME280;5651;50.926;4.718;2022-07-18T01:59:58;102192.47;;;14.09;67.23
11190;BME280;5651;50.926;4.718;2022-07-18T02:02:24;102193.34;;;14.08;67.68
11190;BME280;5651;50.926;4.718;2022-07-18T02:04:49;102192.44;;;14.05;68.66
11190;BME280;5651;50.926;4.718;2022-07-18T02:07:30;102194.19;;;14.03;67.67
11190;BME280;5651;50.926;4.718;2022-07-18T02:09:57;102183.72;;;14.00;67.70
11190;BME280;5651;50.926;4.718;2022-07-18T02:12:24;102188.94;;;13.97;68.53
11190;BME280;5651;50.926;4.718;2022-07-18T02:14:50;102189.81;;;13.94;67.59
11190;BME280;5651;50.926;4.718;2022-07-18T02:17:16;102186.28;;;13.92;67.73
11190;BME280;5651;50.926;4.718;2022-07-18T02:19:43;102193.25;;;13.90;68.61
11190;BME280;5651;50.926;4.718;2022-07-18T02:22:08;102186.28;;;13.87;68.52
11190;BME280;5651;50.926;4.718;2022-07-18T02:24:34;102181.03;;;13.84;69.44
11190;BME280;5651;50.926;4.718;2022-07-18T02:27:00;102183.63;;;13.83;69.91
11190;BME280;5651;50.926;4.718;2022-07-18T02:29:26;102187.13;;;13.80;69.13
11190;BME280;5651;50.926;4.718;2022-07-18T02:31:52;102179.28;;;13.77;68.41
11190;BME280;5651;50.926;4.718;2022-07-18T02:34:17;102178.38;;;13.75;68.77
11190;BME280;5651;50.926;4.718;2022-07-18T02:36:44;102172.25;;;13.71;68.43
11190;BME280;5651;50.926;4.718;2022-07-18T02:39:10;102174.88;;;13.70;68.57
11190;BME280;5651;50.926;4.718;2022-07-18T02:41:36;102174.00;;;13.66;67.98
11190;BME280;5651;50.926;4.718;2022-07-18T02:44:03;102172.25;;;13.65;68.60
11190;BME280;5651;50.926;4.718;2022-07-18T02:46:29;102166.09;;;13.63;67.93
11190;BME280;5651;50.926;4.718;2022-07-18T02:48:55;102163.47;;;13.60;63.66
11190;BME280;5651;50.926;4.718;2022-07-18T02:51:21;102161.72;;;13.62;67.29
11190;BME280;5651;50.926;4.718;2022-07-18T02:53:47;102160.88;;;13.61;67.58
11190;BME280;5651;50.926;4.718;2022-07-18T02:56:12;102152.13;;;13.58;64.17
11190;BME280;5651;50.926;4.718;2022-07-18T02:58:38;102149.50;;;13.61;67.96
11190;BME280;5651;50.926;4.718;2022-07-18T03:01:04;102146.91;;;13.58;66.16
11190;BME280;5651;50.926;4.718;2022-07-18T03:03:29;102150.38;;;13.58;66.25
11190;BME280;5651;50.926;4.718;2022-07-18T03:05:55;102153.88;;;13.59;66.44
11190;BME280;5651;50.926;4.718;2022-07-18T03:08:21;102153.00;;;13.60;68.03
11190;BME280;5651;50.926;4.718;2022-07-18T03:10:47;102155.63;;;13.58;69.07
11190;BME280;5651;50.926;4.718;2022-07-18T03:13:12;102157.34;;;13.56;69.99
11190;BME280;5651;50.926;4.718;2022-07-18T03:15:39;102157.34;;;13.53;69.61
11190;BME280;5651;50.926;4.718;2022-07-18T03:18:06;102152.97;;;13.51;69.54
11190;BME280;5651;50.926;4.718;2022-07-18T03:20:32;102150.31;;;13.49;69.74
11190;BME280;5651;50.926;4.718;2022-07-18T03:22:58;102145.97;;;13.45;68.81
11190;BME280;5651;50.926;4.718;2022-07-18T03:25:24;102143.31;;;13.42;69.95
11190;BME280;5651;50.926;4.718;2022-07-18T03:27:50;102143.31;;;13.40;70.81
11190;BME280;5651;50.926;4.718;2022-07-18T03:30:16;102135.41;;;13.36;70.29
11190;BME280;5651;50.926;4.718;2022-07-18T03:32:42;102136.28;;;13.31;68.89
11190;BME280;5651;50.926;4.718;2022-07-18T03:35:08;102133.63;;;13.28;68.41
11190;BME280;5651;50.926;4.718;2022-07-18T03:37:35;102134.50;;;13.27;69.04
11190;BME280;5651;50.926;4.718;2022-07-18T03:40:02;102134.50;;;13.26;69.64
11190;BME280;5651;50.926;4.718;2022-07-18T03:42:28;102133.59;;;13.22;68.17
11190;BME280;5651;50.926;4.718;2022-07-18T03:44:54;102128.38;;;13.22;70.80
11190;BME280;5651;50.926;4.718;2022-07-18T03:47:20;102135.34;;;13.22;69.58
11190;BME280;5651;50.926;4.718;2022-07-18T03:49:45;102141.41;;;13.19;70.29
11190;BME280;5651;50.926;4.718;2022-07-18T03:52:12;102132.72;;;13.17;69.63
11190;BME280;5651;50.926;4.718;2022-07-18T03:54:37;102126.59;;;13.16;70.05
11190;BME280;5651;50.926;4.718;2022-07-18T03:57:03;102129.19;;;13.13;71.50
11190;BME280;5651;50.926;4.718;2022-07-18T03:59:29;102137.91;;;13.14;71.39
11190;BME280;5651;50.926;4.718;2022-07-18T04:01:55;102140.50;;;13.11;69.85
11190;BME280;5651;50.926;4.718;2022-07-18T04:04:21;102138.78;;;13.10;69.94
11190;BME280;5651;50.926;4.718;2022-07-18T04:06:47;102137.03;;;13.12;71.30
11190;BME280;5651;50.926;4.718;2022-07-18T04:09:12;102128.31;;;13.11;71.21
11190;BME280;5651;50.926;4.718;2022-07-18T04:11:38;102137.03;;;13.12;70.63
11190;BME280;5651;50.926;4.718;2022-07-18T04:14:04;102132.69;;;13.12;71.76
11190;BME280;5651;50.926;4.718;2022-07-18T04:16:30;102130.06;;;13.12;70.68
11190;BME280;5651;50.926;4.718;2022-07-18T04:18:56;102134.44;;;13.13;70.31
11190;BME280;5651;50.926;4.718;2022-07-18T04:21:22;102121.34;;;13.13;69.78
11190;BME280;5651;50.926;4.718;2022-07-18T04:23:47;102114.34;;;13.15;68.85
11190;BME280;5651;50.926;4.718;2022-07-18T04:26:13;102104.78;;;13.19;67.32
11190;BME280;5651;50.926;4.718;2022-07-18T04:28:39;102102.19;;;13.22;66.53
11190;BME280;5651;50.926;4.718;2022-07-18T04:31:05;102108.34;;;13.30;68.35
11190;BME280;5651;50.926;4.718;2022-07-18T04:33:31;102108.34;;;13.37;68.21
11190;BME280;5651;50.926;4.718;2022-07-18T04:35:56;102103.19;;;13.41;67.13
11190;BME280;5651;50.926;4.718;2022-07-18T04:38:22;102102.34;;;13.49;69.47
11190;BME280;5651;50.926;4.718;2022-07-18T04:40:48;102103.25;;;13.55;70.01
11190;BME280;5651;50.926;4.718;2022-07-18T04:43:14;102100.59;;;13.60;68.73
11190;BME280;5651;50.926;4.718;2022-07-18T04:45:39;102093.66;;;13.65;69.71
11190;BME280;5651;50.926;4.718;2022-07-18T04:48:07;102096.28;;;13.71;68.22
11190;BME280;5651;50.926;4.718;2022-07-18T04:50:33;102092.81;;;13.77;67.47
11190;BME280;5651;50.926;4.718;2022-07-18T04:52:59;102087.59;;;13.83;67.19
11190;BME280;5651;50.926;4.718;2022-07-18T04:55:25;102084.97;;;13.89;66.47
11190;BME280;5651;50.926;4.718;2022-07-18T04:57:52;102083.25;;;13.96;65.79
11190;BME280;5651;50.926;4.718;2022-07-18T05:00:20;102087.63;;;14.05;66.98
11190;BME280;5651;50.926;4.718;2022-07-18T05:02:48;102078.88;;;14.12;65.96
11190;BME280;5651;50.926;4.718;2022-07-18T05:05:16;102084.13;;;14.20;65.26
11190;BME280;5651;50.926;4.718;2022-07-18T05:07:43;102083.25;;;14.29;66.52
11190;BME280;5651;50.926;4.718;2022-07-18T05:10:11;102080.66;;;14.38;66.01
11190;BME280;5651;50.926;4.718;2022-07-18T05:12:38;102085.88;;;14.46;65.76
11190;BME280;5651;50.926;4.718;2022-07-18T05:15:06;102085.00;;;14.56;66.97
11190;BME280;5651;50.926;4.718;2022-07-18T05:17:32;102086.75;;;14.66;67.21
11190;BME280;5651;50.926;4.718;2022-07-18T05:19:58;102085.84;;;14.73;66.68
11190;BME280;5651;50.926;4.718;2022-07-18T05:22:24;102089.34;;;14.83;65.32
11190;BME280;5651;50.926;4.718;2022-07-18T05:24:50;102082.31;;;14.93;66.09
11190;BME280;5651;50.926;4.718;2022-07-18T05:27:16;102088.44;;;15.01;65.45
11190;BME280;5651;50.926;4.718;2022-07-18T05:29:42;102087.50;;;15.10;66.00
11190;BME280;5651;50.926;4.718;2022-07-18T05:32:08;102091.84;;;15.22;67.10
11190;BME280;5651;50.926;4.718;2022-07-18T05:34:34;102100.56;;;15.32;66.17
11190;BME280;5651;50.926;4.718;2022-07-18T05:37:00;102099.66;;;15.42;65.75
11190;BME280;5651;50.926;4.718;2022-07-18T05:39:26;102096.97;;;15.50;64.32
11190;BME280;5651;50.926;4.718;2022-07-18T05:41:52;102096.94;;;15.59;63.32
11190;BME280;5651;50.926;4.718;2022-07-18T05:44:18;102103.91;;;15.66;61.56
11190;BME280;5651;50.926;4.718;2022-07-18T05:46:49;102102.97;;;15.77;60.91
11190;BME280;5651;50.926;4.718;2022-07-18T05:49:15;102109.94;;;15.87;59.89
11190;BME280;5651;50.926;4.718;2022-07-18T05:51:41;102120.41;;;15.99;61.17
11190;BME280;5651;50.926;4.718;2022-07-18T05:54:07;102109.78;;;16.10;59.26
11190;BME280;5651;50.926;4.718;2022-07-18T05:56:34;102114.97;;;16.21;58.59
11190;BME280;5651;50.926;4.718;2022-07-18T05:59:00;102119.28;;;16.33;57.54
11190;BME280;5651;50.926;4.718;2022-07-18T06:01:26;102116.53;;;16.45;57.24
11190;BME280;5651;50.926;4.718;2022-07-18T06:03:51;102107.63;;;16.59;56.80
11190;BME280;5651;50.926;4.718;2022-07-18T06:06:17;102112.78;;;16.71;56.87
11190;BME280;5651;50.926;4.718;2022-07-18T06:08:45;102110.03;;;16.84;56.74
11190;BME280;5651;50.926;4.718;2022-07-18T06:11:11;102109.91;;;16.98;56.41
11190;BME280;5651;50.926;4.718;2022-07-18T06:13:39;102120.28;;;17.13;56.15
11190;BME280;5651;50.926;4.718;2022-07-18T06:16:06;102115.72;;;17.27;55.58
11190;BME280;5651;50.926;4.718;2022-07-18T06:18:32;102119.00;;;17.47;57.89
11190;BME280;5651;50.926;4.718;2022-07-18T06:21:01;102112.47;;;17.72;56.41
11190;BME280;5651;50.926;4.718;2022-07-18T06:23:28;102115.72;;;17.93;59.64
11190;BME280;5651;50.926;4.718;2022-07-18T06:25:55;102114.66;;;18.07;57.76
11190;BME280;5651;50.926;4.718;2022-07-18T06:28:21;102116.22;;;18.20;56.52
11190;BME280;5651;50.926;4.718;2022-07-18T06:30:47;102115.81;;;18.43;57.00
11190;BME280;5651;50.926;4.718;2022-07-18T06:33:13;102117.94;;;18.73;57.74
11190;BME280;5651;50.926;4.718;2022-07-18T06:35:40;102117.63;;;18.90;56.82
11190;BME280;5651;50.926;4.718;2022-07-18T06:38:06;102107.56;;;19.12;59.69
11190;BME280;5651;50.926;4.718;2022-07-18T06:40:32;102115.25;;;19.23;58.47
11190;BME280;5651;50.926;4.718;2022-07-18T06:42:58;102111.50;;;19.35;58.97
11190;BME280;5651;50.926;4.718;2022-07-18T06:45:23;102113.94;;;19.44;58.69
11190;BME280;5651;50.926;4.718;2022-07-18T06:47:49;102110.03;;;19.62;58.96
11190;BME280;5651;50.926;4.718;2022-07-18T06:50:15;102116.81;;;19.74;57.58
11190;BME280;5651;50.926;4.718;2022-07-18T06:52:42;102112.91;;;19.92;57.51
11190;BME280;5651;50.926;4.718;2022-07-18T06:55:09;102109.00;;;20.07;56.39
11190;BME280;5651;50.926;4.718;2022-07-18T06:57:36;102112.34;;;20.15;58.15
11190;BME280;5651;50.926;4.718;2022-07-18T07:00:04;102105.75;;;20.32;57.77
11190;BME280;5651;50.926;4.718;2022-07-18T07:02:30;102108.88;;;20.49;57.63
11190;BME280;5651;50.926;4.718;2022-07-18T07:04:56;102103.09;;;20.66;56.26
11190;BME280;5651;50.926;4.718;2022-07-18T07:07:22;102095.75;;;20.79;56.73
11190;BME280;5651;50.926;4.718;2022-07-18T07:09:48;102095.38;;;20.92;55.02
11190;BME280;5651;50.926;4.718;2022-07-18T07:12:13;102096.63;;;21.10;54.42
11190;BME280;5651;50.926;4.718;2022-07-18T07:14:39;102092.72;;;21.23;54.14
11190;BME280;5651;50.926;4.718;2022-07-18T07:17:05;102100.47;;;21.31;53.99
11190;BME280;5651;50.926;4.718;2022-07-18T07:19:31;102106.13;;;21.48;54.21
11190;BME280;5651;50.926;4.718;2022-07-18T07:21:57;102105.50;;;21.70;52.61
11190;BME280;5651;50.926;4.718;2022-07-18T07:24:23;102099.09;;;21.77;53.80
11190;BME280;5651;50.926;4.718;2022-07-18T07:26:48;102090.44;;;21.99;53.24
11190;BME280;5651;50.926;4.718;2022-07-18T07:29:14;102089.09;;;22.12;52.93
11190;BME280;5651;50.926;4.718;2022-07-18T07:31:41;102088.84;;;22.20;53.26
11190;BME280;5651;50.926;4.718;2022-07-18T07:34:08;102092.56;;;22.41;51.36
11190;BME280;5651;50.926;4.718;2022-07-18T07:36:35;102085.16;;;22.51;51.58
11190;BME280;5651;50.926;4.718;2022-07-18T07:39:01;102082.13;;;22.62;52.32
11190;BME280;5651;50.926;4.718;2022-07-18T07:41:27;102078.88;;;22.79;51.19
11190;BME280;5651;50.926;4.718;2022-07-18T07:43:53;102075.75;;;22.91;51.76
11190;BME280;5651;50.926;4.718;2022-07-18T07:46:19;102076.84;;;23.09;50.18
11190;BME280;5651;50.926;4.718;2022-07-18T07:48:44;102073.94;;;23.16;51.72
11190;BME280;5651;50.926;4.718;2022-07-18T07:51:13;102077.78;;;23.32;51.41
11190;BME280;5651;50.926;4.718;2022-07-18T07:53:39;102077.19;;;23.48;51.58
11190;BME280;5651;50.926;4.718;2022-07-18T07:56:05;102072.63;;;23.73;49.97
11190;BME280;5651;50.926;4.718;2022-07-18T07:58:31;102064.13;;;23.86;48.97
11190;BME280;5651;50.926;4.718;2022-07-18T08:00:57;102072.25;;;24.05;49.09
11190;BME280;5651;50.926;4.718;2022-07-18T08:03:23;102067.88;;;24.25;47.57
11190;BME280;5651;50.926;4.718;2022-07-18T08:05:49;102060.09;;;24.41;47.16
11190;BME280;5651;50.926;4.718;2022-07-18T08:08:16;102062.41;;;24.48;48.00
11190;BME280;5651;50.926;4.718;2022-07-18T08:10:43;102061.69;;;24.65;46.88
11190;BME280;5651;50.926;4.718;2022-07-18T08:13:11;102064.88;;;24.74;47.12
11190;BME280;5651;50.926;4.718;2022-07-18T08:15:37;102055.34;;;24.89;46.77
11190;BME280;5651;50.926;4.718;2022-07-18T08:18:04;102053.78;;;25.04;46.57
11190;BME280;5651;50.926;4.718;2022-07-18T08:20:29;102054.84;;;25.19;46.67
11190;BME280;5651;50.926;4.718;2022-07-18T08:23:02;102050.50;;;25.35;45.92
11190;BME280;5651;50.926;4.718;2022-07-18T08:25:30;102054.47;;;25.45;46.52
11190;BME280;5651;50.926;4.718;2022-07-18T08:27:57;102057.91;;;25.67;45.51
11190;BME280;5651;50.926;4.718;2022-07-18T08:30:23;102044.03;;;25.77;45.71
11190;BME280;5651;50.926;4.718;2022-07-18T08:32:49;102050.97;;;25.82;45.12
11190;BME280;5651;50.926;4.718;2022-07-18T08:35:15;102047.53;;;25.97;45.09
11190;BME280;5651;50.926;4.718;2022-07-18T08:37:41;102049.50;;;26.11;43.92
11190;BME280;5651;50.926;4.718;2022-07-18T08:40:07;102041.63;;;26.25;44.98
11190;BME280;5651;50.926;4.718;2022-07-18T08:42:34;102041.16;;;26.35;45.63
11190;BME280;5651;50.926;4.718;2022-07-18T08:45:01;102036.84;;;26.50;44.61
11190;BME280;5651;50.926;4.718;2022-07-18T08:47:31;102042.53;;;26.60;44.12
11190;BME280;5651;50.926;4.718;2022-07-18T08:49:58;102038.16;;;26.74;45.24
11190;BME280;5651;50.926;4.718;2022-07-18T08:52:24;102043.34;;;26.95;44.32
11190;BME280;5651;50.926;4.718;2022-07-18T08:54:50;102045.34;;;27.08;45.55
11190;BME280;5651;50.926;4.718;2022-07-18T08:57:16;102039.22;;;27.22;44.70
11190;BME280;5651;50.926;4.718;2022-07-18T08:59:43;102042.56;;;27.41;44.31
11190;BME280;5651;50.926;4.718;2022-07-18T09:02:08;102049.22;;;27.50;43.31
11190;BME280;5651;50.926;4.718;2022-07-18T09:04:40;102042.66;;;27.56;44.36
11190;BME280;5651;50.926;4.718;2022-07-18T09:07:07;102036.66;;;27.82;44.40
11190;BME280;5651;50.926;4.718;2022-07-18T09:09:35;102035.06;;;27.94;44.66
11190;BME280;5651;50.926;4.718;2022-07-18T09:12:10;102037.91;;;28.22;42.83
11190;BME280;5651;50.926;4.718;2022-07-18T09:14:43;102039.19;;;28.16;43.92
11190;BME280;5651;50.926;4.718;2022-07-18T09:17:24;102030.19;;;28.32;44.96
11190;BME280;5651;50.926;4.718;2022-07-18T09:22:38;102037.09;;;28.65;44.73
11190;BME280;5651;50.926;4.718;2022-07-18T09:27:34;102043.66;;;28.75;41.68
11190;BME280;5651;50.926;4.718;2022-07-18T09:30:10;102041.13;;;29.01;44.02
11190;BME280;5651;50.926;4.718;2022-07-18T09:32:40;102034.59;;;29.05;43.34
11190;BME280;5651;50.926;4.718;2022-07-18T09:35:08;102035.81;;;29.14;43.17
11190;BME280;5651;50.926;4.718;2022-07-18T09:37:35;102042.72;;;29.32;43.18
11190;BME280;5651;50.926;4.718;2022-07-18T09:40:28;102042.16;;;29.54;42.76
11190;BME280;5651;50.926;4.718;2022-07-18T09:42:57;102035.78;;;29.43;36.87
11190;BME280;5651;50.926;4.718;2022-07-18T09:45:31;102044.13;;;29.65;41.10
11190;BME280;5651;50.926;4.718;2022-07-18T09:48:00;102035.03;;;29.68;40.21
11190;BME280;5651;50.926;4.718;2022-07-18T09:50:51;102042.41;;;29.92;41.29
11190;BME280;5651;50.926;4.718;2022-07-18T09:53:22;102041.81;;;30.14;40.79
11190;BME280;5651;50.926;4.718;2022-07-18T09:56:08;102052.34;;;30.30;38.25
11190;BME280;5651;50.926;4.718;2022-07-18T09:58:41;102037.84;;;30.19;37.27
11190;BME280;5651;50.926;4.718;2022-07-18T10:01:08;102046.56;;;30.36;38.14
11190;BME280;5651;50.926;4.718;2022-07-18T10:03:34;102043.66;;;30.52;38.01
11190;BME280;5651;50.926;4.718;2022-07-18T10:06:01;102040.75;;;30.42;37.80
11190;BME280;5651;50.926;4.718;2022-07-18T10:08:30;102042.91;;;30.63;36.81
11190;BME280;5651;50.926;4.718;2022-07-18T10:10:57;102036.84;;;30.85;37.21
11190;BME280;5651;50.926;4.718;2022-07-18T10:13:26;102035.19;;;30.95;37.20
11190;BME280;5651;50.926;4.718;2022-07-18T10:15:52;102032.19;;;30.87;36.49
11190;BME280;5651;50.926;4.718;2022-07-18T10:18:23;102034.81;;;30.89;36.72
11190;BME280;5651;50.926;4.718;2022-07-18T10:21:10;102036.91;;;31.09;35.03
11190;BME280;5651;50.926;4.718;2022-07-18T10:23:41;102032.69;;;31.18;35.42
11190;BME280;5651;50.926;4.718;2022-07-18T10:28:33;102028.91;;;31.45;35.43
11190;BME280;5651;50.926;4.718;2022-07-18T10:31:15;102024.53;;;31.55;34.09
11190;BME280;5651;50.926;4.718;2022-07-18T10:33:45;102023.56;;;31.56;34.69
11190;BME280;5651;50.926;4.718;2022-07-18T10:36:22;102021.59;;;31.71;33.91
11190;BME280;5651;50.926;4.718;2022-07-18T10:57:30;102011.31;;;32.92;33.91
11190;BME280;5651;50.926;4.718;2022-07-18T11:00:10;102008.41;;;33.16;34.07
11190;BME280;5651;50.926;4.718;2022-07-18T11:02:46;102015.13;;;33.00;31.40
11190;BME280;5651;50.926;4.718;2022-07-18T11:16:16;102005.56;;;33.94;31.91
11190;BME280;5651;50.926;4.718;2022-07-18T11:21:21;102003.94;;;34.12;30.23
11190;BME280;5651;50.926;4.718;2022-07-18T11:23:50;102007.03;;;34.08;30.17
11190;BME280;5651;50.926;4.718;2022-07-18T11:26:18;102005.28;;;33.97;27.88
11190;BME280;5651;50.926;4.718;2022-07-18T11:28:46;101991.06;;;33.95;29.91
11190;BME280;5651;50.926;4.718;2022-07-18T11:31:14;101994.66;;;34.05;30.45
11190;BME280;5651;50.926;4.718;2022-07-18T11:33:47;101998.00;;;34.19;28.97
11190;BME280;5651;50.926;4.718;2022-07-18T11:36:14;101991.13;;;34.36;30.93
11190;BME280;5651;50.926;4.718;2022-07-18T11:38:47;101988.88;;;34.41;27.84
11190;BME280;5651;50.926;4.718;2022-07-18T11:41:14;101990.84;;;34.80;28.00
11190;BME280;5651;50.926;4.718;2022-07-18T11:43:40;101982.13;;;34.66;28.01
11190;BME280;5651;50.926;4.718;2022-07-18T11:46:08;101979.97;;;34.60;26.99
11190;BME280;5651;50.926;4.718;2022-07-18T11:48:36;101979.56;;;34.74;28.38
11190;BME280;5651;50.926;4.718;2022-07-18T11:51:02;101978.00;;;34.82;27.38
11190;BME280;5651;50.926;4.718;2022-07-18T11:53:28;101981.34;;;34.95;28.99
11190;BME280;5651;50.926;4.718;2022-07-18T11:55:55;101972.38;;;35.24;28.47
11190;BME280;5651;50.926;4.718;2022-07-18T11:58:21;101964.50;;;34.91;26.09
11190;BME280;5651;50.926;4.718;2022-07-18T12:00:47;101965.66;;;35.09;28.31
11190;BME280;5651;50.926;4.718;2022-07-18T12:03:19;101965.25;;;35.03;26.07
11190;BME280;5651;50.926;4.718;2022-07-18T12:08:32;101955.72;;;35.38;27.46
11190;BME280;5651;50.926;4.718;2022-07-18T12:11:25;101949.56;;;35.27;26.06
11190;BME280;5651;50.926;4.718;2022-07-18T12:14:28;101945.69;;;35.68;27.82
11190;BME280;5651;50.926;4.718;2022-07-18T12:16:49;101945.53;;;35.70;24.80
11190;BME280;5651;50.926;4.718;2022-07-18T12:19:32;101940.66;;;35.93;27.13
11190;BME280;5651;50.926;4.718;2022-07-18T12:22:11;101942.53;;;35.93;26.39
11190;BME280;5651;50.926;4.718;2022-07-18T12:35:22;101928.41;;;36.55;25.18
11190;BME280;5651;50.926;4.718;2022-07-18T12:40:18;101943.09;;;36.80;26.14
11190;BME280;5651;50.926;4.718;2022-07-18T12:42:44;101933.28;;;36.97;25.34
11190;BME280;5651;50.926;4.718;2022-07-18T12:45:11;101933.44;;;36.95;25.09
11190;BME280;5651;50.926;4.718;2022-07-18T12:47:37;101929.09;;;37.03;24.34
11190;BME280;5651;50.926;4.718;2022-07-18T12:50:04;101927.81;;;37.15;25.06
11190;BME280;5651;50.926;4.718;2022-07-18T12:52:30;101920.75;;;37.04;22.80
11190;BME280;5651;50.926;4.718;2022-07-18T12:54:56;101925.78;;;37.35;24.23
11190;BME280;5651;50.926;4.718;2022-07-18T12:57:22;101925.06;;;37.51;23.40
11190;BME280;5651;50.926;4.718;2022-07-18T12:59:49;101919.03;;;37.21;22.90
11190;BME280;5651;50.926;4.718;2022-07-18T13:02:15;101911.91;;;37.65;24.41
11190;BME280;5651;50.926;4.718;2022-07-18T13:04:42;101911.16;;;37.81;23.21
11190;BME280;5651;50.926;4.718;2022-07-18T13:07:08;101909.72;;;38.38;24.23
11190;BME280;5651;50.926;4.718;2022-07-18T13:09:34;101915.47;;;38.77;24.28
11190;BME280;5651;50.926;4.718;2022-07-18T13:12:00;101907.69;;;38.40;21.72
11190;BME280;5651;50.926;4.718;2022-07-18T13:14:26;101905.25;;;39.12;22.62
11190;BME280;5651;50.926;4.718;2022-07-18T13:16:52;101904.56;;;39.10;21.67
11190;BME280;5651;50.926;4.718;2022-07-18T13:19:19;101898.25;;;40.07;23.82
11190;BME280;5651;50.926;4.718;2022-07-18T13:21:46;101895.16;;;39.79;22.49
11190;BME280;5651;50.926;4.718;2022-07-18T13:24:12;101894.75;;;40.30;22.33
11190;BME280;5651;50.926;4.718;2022-07-18T13:26:39;101895.09;;;40.35;20.62
11190;BME280;5651;50.926;4.718;2022-07-18T13:29:06;101891.56;;;40.58;20.95
11190;BME280;5651;50.926;4.718;2022-07-18T13:31:32;101885.09;;;40.97;22.18
11190;BME280;5651;50.926;4.718;2022-07-18T13:33:58;101881.69;;;40.95;20.50
11190;BME280;5651;50.926;4.718;2022-07-18T13:36:24;101882.00;;;41.39;21.12
11190;BME280;5651;50.926;4.718;2022-07-18T13:38:50;101876.75;;;41.14;20.78
11190;BME280;5651;50.926;4.718;2022-07-18T13:41:16;101880.72;;;41.64;20.51
11190;BME280;5651;50.926;4.718;2022-07-18T13:43:41;101880.34;;;41.53;20.29
11190;BME280;5651;50.926;4.718;2022-07-18T13:46:09;101880.59;;;41.43;19.74
11190;BME280;5651;50.926;4.718;2022-07-18T13:48:35;101875.03;;;41.66;18.91
11190;BME280;5651;50.926;4.718;2022-07-18T13:51:01;101868.06;;;41.48;18.99
11190;BME280;5651;50.926;4.718;2022-07-18T13:53:27;101875.09;;;42.18;20.07
11190;BME280;5651;50.926;4.718;2022-07-18T13:55:53;101866.63;;;41.97;18.10
11190;BME280;5651;50.926;4.718;2022-07-18T13:58:19;101863.75;;;42.21;19.38